createdAt,value
2023-05-06T00:01:17.949Z,12.61
2023-05-06T00:04:20.798Z,12.66
2023-05-06T00:07:23.236Z,12.45
2023-05-06T00:10:26.165Z,12.51
2023-05-06T00:13:28.595Z,12.51
2023-05-06T00:16:31.064Z,12.42
2023-05-06T00:19:33.603Z,12.19
2023-05-06T00:22:36.229Z,12.14
2023-05-06T00:25:38.717Z,12.21
2023-05-06T00:28:41.402Z,12.18
2023-05-06T00:31:45.237Z,12.20
2023-05-06T00:34:48.315Z,12.22
2023-05-06T00:38:23.356Z,12.20
2023-05-06T00:41:26.282Z,12.11
2023-05-06T00:44:29.496Z,12.03
2023-05-06T00:47:32.007Z,11.91
2023-05-06T00:50:36.916Z,12.04
2023-05-06T00:53:40.615Z,12.12
2023-05-06T00:56:43.467Z,12.06
2023-05-06T00:59:46.174Z,12.13
2023-05-06T01:02:49.627Z,12.07
2023-05-06T01:06:00.086Z,12.15
2023-05-06T01:09:39.314Z,12.16
2023-05-06T01:12:56.700Z,12.11
2023-05-06T01:16:01.590Z,12.02
2023-05-06T01:19:08.957Z,12.03
2023-05-06T01:22:12.562Z,11.96
2023-05-06T01:25:20.255Z,11.85
2023-05-06T01:28:25.224Z,11.83
2023-05-06T01:31:32.254Z,11.88
2023-05-06T01:34:46.404Z,11.80
2023-05-06T01:38:11.761Z,11.91
2023-05-06T01:41:19.024Z,11.69
2023-05-06T01:44:23.507Z,11.69
2023-05-06T01:47:26.496Z,11.59
2023-05-06T01:50:30.841Z,11.57
2023-05-06T01:53:33.382Z,11.48
2023-05-06T01:56:36.485Z,11.57
2023-05-06T01:59:39.299Z,11.49
2023-05-06T02:02:41.982Z,11.44
2023-05-06T02:05:44.756Z,11.36
2023-05-06T02:08:47.824Z,11.45
2023-05-06T02:11:54.747Z,11.25
2023-05-06T02:14:57.761Z,11.34
2023-05-06T02:18:00.404Z,11.32
2023-05-06T02:21:03.343Z,11.36
2023-05-06T02:24:06.969Z,11.25
2023-05-06T02:27:09.384Z,11.31
2023-05-06T02:30:12.140Z,11.23
2023-05-06T02:33:14.628Z,11.14
2023-05-06T02:36:17.064Z,11.09
2023-05-06T02:39:20.342Z,11.03
2023-05-06T02:42:22.961Z,11.09
2023-05-06T02:45:25.385Z,11.12
2023-05-06T02:48:28.626Z,11.19
2023-05-06T02:51:31.266Z,11.18
2023-05-06T02:54:34.290Z,11.14
2023-05-06T02:57:36.815Z,11.19
2023-05-06T03:00:39.293Z,11.14
2023-05-06T03:03:42.068Z,11.20
2023-05-06T03:06:44.576Z,11.27
2023-05-06T03:09:47.298Z,11.17
2023-05-06T03:12:50.644Z,11.18
2023-05-06T03:15:54.296Z,11.16
2023-05-06T03:18:58.087Z,11.10
2023-05-06T03:22:00.921Z,11.14
2023-05-06T03:25:05.331Z,11.20
2023-05-06T03:28:09.480Z,11.08
2023-05-06T03:31:15.212Z,11.14
2023-05-06T03:34:18.178Z,11.24
2023-05-06T03:37:21.925Z,11.33
2023-05-06T03:40:29.133Z,11.31
2023-05-06T03:43:36.145Z,11.34
2023-05-06T03:46:41.665Z,11.31
2023-05-06T03:49:45.371Z,11.36
2023-05-06T03:52:49.111Z,11.18
2023-05-06T03:55:51.612Z,11.34
2023-05-06T03:58:54.629Z,11.29
2023-05-06T04:01:58.766Z,11.03
2023-05-06T04:05:01.669Z,11.09
2023-05-06T04:08:04.973Z,11.10
2023-05-06T04:11:08.240Z,11.09
2023-05-06T04:14:12.692Z,11.06
2023-05-06T04:17:15.231Z,11.17
2023-05-06T04:20:19.122Z,11.21
2023-05-06T04:23:22.363Z,11.33
2023-05-06T04:26:25.346Z,11.52
2023-05-06T04:29:27.937Z,11.68
2023-05-06T04:32:35.293Z,11.75
2023-05-06T04:35:40.071Z,11.88
2023-05-06T04:38:43.526Z,11.96
2023-05-06T04:41:47.068Z,12.11
2023-05-06T04:44:54.481Z,12.35
2023-05-06T04:48:01.809Z,12.42
2023-05-06T04:51:05.533Z,12.42
2023-05-06T04:54:09.642Z,12.66
2023-05-06T04:57:13.137Z,12.72
2023-05-06T05:00:19.649Z,12.85
2023-05-06T05:03:22.283Z,12.97
2023-05-06T05:06:25.039Z,12.93
2023-05-06T05:09:28.493Z,12.84
2023-05-06T05:12:31.261Z,13.09
2023-05-06T05:15:34.826Z,13.31
2023-05-06T05:18:37.409Z,13.47
2023-05-06T05:21:48.631Z,13.55
2023-05-06T05:24:51.653Z,13.65
2023-05-06T05:27:54.303Z,13.58
2023-05-06T05:31:03.132Z,13.65
2023-05-06T05:34:07.984Z,13.78
2023-05-06T05:37:16.074Z,13.99
2023-05-06T05:40:19.878Z,13.84
2023-05-06T05:43:27.047Z,14.05
2023-05-06T05:46:31.415Z,14.19
2023-05-06T05:49:34.195Z,14.29
2023-05-06T05:52:38.139Z,14.45
2023-05-06T05:55:41.401Z,14.73
2023-05-06T05:58:44.221Z,14.95
2023-05-06T06:01:46.902Z,15.17
2023-05-06T06:04:49.830Z,15.47
2023-05-06T06:07:52.574Z,15.74
2023-05-06T06:10:56.275Z,15.98
2023-05-06T06:14:02.980Z,16.33
2023-05-06T06:17:05.759Z,16.72
2023-05-06T06:20:09.126Z,16.87
2023-05-06T06:23:13.403Z,17.24
2023-05-06T06:26:16.252Z,17.43
2023-05-06T06:29:19.031Z,17.75
2023-05-06T06:32:21.573Z,17.94
2023-05-06T06:35:24.291Z,18.01
2023-05-06T06:38:26.773Z,17.93
2023-05-06T06:41:29.453Z,18.12
2023-05-06T06:44:33.282Z,18.50
2023-05-06T06:47:35.844Z,18.80
2023-05-06T06:50:38.431Z,18.96
2023-05-06T06:53:41.861Z,18.97
2023-05-06T06:56:44.466Z,19.03
2023-05-06T06:59:47.756Z,18.85
2023-05-06T07:02:50.376Z,18.83
2023-05-06T07:05:52.904Z,18.71
2023-05-06T07:08:55.427Z,18.74
2023-05-06T07:11:58.631Z,18.84
2023-05-06T07:15:01.301Z,18.97
2023-05-06T07:18:03.912Z,18.92
2023-05-06T07:21:06.580Z,19.13
2023-05-06T07:24:09.372Z,19.17
2023-05-06T07:27:11.897Z,19.41
2023-05-06T07:30:14.620Z,19.54
2023-05-06T07:33:17.373Z,19.48
2023-05-06T07:36:20.193Z,19.74
2023-05-06T07:39:22.639Z,20.02
2023-05-06T07:42:25.288Z,19.94
2023-05-06T07:45:27.831Z,20.25
2023-05-06T07:48:30.970Z,19.91
2023-05-06T07:51:33.659Z,19.90
2023-05-06T07:54:36.118Z,19.82
2023-05-06T07:57:38.975Z,19.87
2023-05-06T08:00:41.415Z,20.01
2023-05-06T08:03:44.240Z,20.12
2023-05-06T08:06:47.152Z,20.37
2023-05-06T08:09:49.657Z,20.44
2023-05-06T08:12:52.307Z,20.67
2023-05-06T08:15:55.511Z,20.85
2023-05-06T08:18:58.535Z,20.95
2023-05-06T08:22:01.136Z,20.81
2023-05-06T08:25:03.732Z,21.18
2023-05-06T08:28:06.481Z,21.30
2023-05-06T08:31:09.017Z,21.64
2023-05-06T08:34:11.667Z,21.83
2023-05-06T08:37:14.210Z,22.04
2023-05-06T08:40:21.910Z,22.02
2023-05-06T08:43:27.596Z,22.18
2023-05-06T08:46:31.544Z,22.27
2023-05-06T08:49:34.160Z,22.60
2023-05-06T08:52:38.462Z,22.65
2023-05-06T08:55:42.492Z,22.17
2023-05-06T08:58:48.374Z,21.75
2023-05-06T09:01:52.053Z,22.04
2023-05-06T09:04:55.695Z,22.03
2023-05-06T09:07:58.424Z,22.36
2023-05-06T09:11:01.134Z,22.47
2023-05-06T09:14:11.145Z,22.55
2023-05-06T09:17:26.674Z,22.99
2023-05-06T09:20:32.838Z,23.40
2023-05-06T09:23:35.590Z,23.31
2023-05-06T09:26:39.498Z,23.63
2023-05-06T09:30:00.618Z,24.03
2023-05-06T09:33:06.015Z,23.92
2023-05-06T09:36:10.813Z,23.86
2023-05-06T09:39:13.523Z,23.89
2023-05-06T09:42:16.706Z,24.36
2023-05-06T09:45:19.159Z,25.01
2023-05-06T09:48:22.261Z,24.80
2023-05-06T09:51:26.455Z,23.90
2023-05-06T09:54:29.600Z,23.45
2023-05-06T09:57:33.364Z,24.16
2023-05-06T10:00:36.658Z,24.06
2023-05-06T10:03:42.147Z,24.70
2023-05-06T10:06:49.013Z,24.21
2023-05-06T10:09:52.682Z,24.55
2023-05-06T10:12:56.412Z,24.76
2023-05-06T10:16:00.874Z,25.61
2023-05-06T10:19:06.701Z,25.95
2023-05-06T10:22:18.354Z,25.58
2023-05-06T10:25:35.308Z,25.47
2023-05-06T10:28:42.819Z,25.67
2023-05-06T10:31:55.442Z,25.96
2023-05-06T10:35:05.886Z,25.53
2023-05-06T10:38:15.270Z,25.14
2023-05-06T10:41:18.276Z,25.32
2023-05-06T10:44:56.615Z,26.15
2023-05-06T10:47:59.114Z,26.09
2023-05-06T10:51:13.908Z,26.47
2023-05-06T10:54:23.111Z,26.74
2023-05-06T10:57:27.404Z,28.35
2023-05-06T11:00:34.829Z,27.07
2023-05-06T11:03:37.703Z,30.59
2023-05-06T11:06:46.774Z,29.36
2023-05-06T11:10:05.176Z,27.32
2023-05-06T11:13:25.119Z,27.53
2023-05-06T11:16:47.386Z,27.76
2023-05-06T11:19:50.028Z,26.91
2023-05-06T11:22:53.131Z,28.37
2023-05-06T11:25:58.773Z,27.83
2023-05-06T11:29:04.113Z,28.68
2023-05-06T11:32:23.438Z,26.34
2023-05-06T11:35:34.156Z,26.41
2023-05-06T11:38:52.923Z,26.07
2023-05-06T11:42:07.062Z,25.47
2023-05-06T11:45:11.570Z,24.83
2023-05-06T11:48:18.373Z,24.39
2023-05-06T11:51:23.973Z,24.25
2023-05-06T11:54:27.157Z,24.23
2023-05-06T11:57:29.951Z,24.10
2023-05-06T12:00:32.504Z,23.81
2023-05-06T12:03:35.530Z,23.24
2023-05-06T12:06:39.140Z,23.25
2023-05-06T12:09:48.332Z,22.98
2023-05-06T12:12:51.167Z,23.03
2023-05-06T12:15:55.454Z,22.95
2023-05-06T12:18:58.237Z,23.23
2023-05-06T12:22:24.687Z,23.23
2023-05-06T12:25:27.235Z,23.49
2023-05-06T12:28:31.419Z,23.72
2023-05-06T12:31:34.532Z,23.67
2023-05-06T12:34:41.186Z,23.80
2023-05-06T12:37:43.648Z,23.81
2023-05-06T12:40:53.564Z,23.62
2023-05-06T12:43:56.369Z,23.84
2023-05-06T12:47:18.761Z,24.15
2023-05-06T12:50:41.847Z,24.05
2023-05-06T12:53:44.387Z,23.96
2023-05-06T12:56:46.895Z,23.38
2023-05-06T12:59:49.795Z,23.36
2023-05-06T13:02:52.340Z,23.08
2023-05-06T13:05:55.176Z,22.75
2023-05-06T13:08:58.093Z,22.91
2023-05-06T13:12:02.604Z,23.16
2023-05-06T13:15:05.555Z,23.12
2023-05-06T13:18:09.042Z,22.93
2023-05-06T13:21:13.152Z,22.82
2023-05-06T13:24:17.066Z,22.90
2023-05-06T13:27:19.536Z,22.63
2023-05-06T13:30:21.958Z,22.46
2023-05-06T13:33:24.525Z,22.31
2023-05-06T13:36:27.383Z,22.13
2023-05-06T13:39:30.911Z,22.13
2023-05-06T13:42:33.450Z,21.84
2023-05-06T13:45:35.926Z,21.68
2023-05-06T13:48:39.029Z,21.41
2023-05-06T13:51:41.476Z,21.14
2023-05-06T13:54:45.010Z,20.98
2023-05-06T13:57:47.519Z,20.86
2023-05-06T14:00:50.565Z,20.90
2023-05-06T14:03:53.013Z,20.80
2023-05-06T14:06:56.076Z,20.81
2023-05-06T14:09:58.874Z,20.20
2023-05-06T14:13:01.524Z,19.95
2023-05-06T14:16:04.994Z,19.81
2023-05-06T14:19:07.810Z,19.70
2023-05-06T14:22:10.914Z,19.42
2023-05-06T14:25:13.795Z,19.17
2023-05-06T14:28:16.539Z,18.98
2023-05-06T14:31:19.057Z,18.83
2023-05-06T14:34:21.562Z,19.18
2023-05-06T14:37:24.076Z,19.19
2023-05-06T14:40:26.752Z,19.17
2023-05-06T14:43:29.221Z,19.25
2023-05-06T14:46:31.741Z,19.58
2023-05-06T14:49:34.297Z,19.90
2023-05-06T14:52:40.579Z,19.89
2023-05-06T14:55:43.054Z,20.33
2023-05-06T14:58:46.168Z,20.25
2023-05-06T15:01:48.746Z,20.47
2023-05-06T15:04:52.717Z,20.37
2023-05-06T15:07:55.189Z,20.62
2023-05-06T15:10:57.658Z,20.56
2023-05-06T15:14:00.122Z,20.67
2023-05-06T15:17:02.776Z,20.68
2023-05-06T15:20:07.058Z,20.81
2023-05-06T15:23:09.584Z,20.92
2023-05-06T15:26:12.139Z,21.15
2023-05-06T15:29:14.990Z,21.48
2023-05-06T15:32:17.604Z,22.63
2023-05-06T15:35:20.125Z,27.93
2023-05-06T15:38:22.618Z,28.86
2023-05-06T15:41:32.235Z,30.08
2023-05-06T15:44:34.809Z,28.04
2023-05-06T15:47:37.289Z,28.63
2023-05-06T15:50:39.970Z,28.92
2023-05-06T15:53:43.179Z,29.51
2023-05-06T15:56:46.146Z,30.33
2023-05-06T15:59:48.619Z,30.23
2023-05-06T16:02:51.193Z,31.10
2023-05-06T16:05:56.661Z,30.85
2023-05-06T16:09:00.884Z,30.48
2023-05-06T16:12:04.118Z,30.53
2023-05-06T16:15:08.069Z,30.39
2023-05-06T16:18:11.246Z,30.54
2023-05-06T16:21:13.831Z,29.91
2023-05-06T16:24:16.398Z,28.44
2023-05-06T16:27:18.882Z,26.06
2023-05-06T16:30:21.889Z,26.44
2023-05-06T16:33:24.772Z,26.54
2023-05-06T16:36:28.547Z,26.30
2023-05-06T16:39:30.994Z,25.05
2023-05-06T16:42:33.563Z,23.98
2023-05-06T16:45:36.353Z,23.33
2023-05-06T16:48:39.407Z,22.60
2023-05-06T16:51:41.901Z,22.21
2023-05-06T16:54:44.485Z,21.79
2023-05-06T16:57:47.052Z,21.40
2023-05-06T17:00:52.657Z,20.93
2023-05-06T17:03:55.790Z,20.78
2023-05-06T17:06:58.551Z,20.77
2023-05-06T17:10:01.381Z,20.64
2023-05-06T17:13:05.205Z,20.30
2023-05-06T17:16:07.889Z,20.16
2023-05-06T17:19:11.884Z,20.15
2023-05-06T17:22:14.997Z,20.00
2023-05-06T17:25:17.537Z,19.99
2023-05-06T17:28:20.608Z,19.77
2023-05-06T17:31:23.421Z,19.55
2023-05-06T17:34:26.094Z,19.56
2023-05-06T17:37:28.644Z,19.53
2023-05-06T17:40:31.238Z,19.33
2023-05-06T17:43:34.231Z,19.14
2023-05-06T17:46:37.121Z,19.19
2023-05-06T17:49:39.731Z,19.14
2023-05-06T17:52:42.540Z,19.01
2023-05-06T17:55:44.967Z,18.91
2023-05-06T17:58:47.912Z,18.81
2023-05-06T18:01:50.436Z,18.97
2023-05-06T18:04:53.524Z,19.03
2023-05-06T18:07:56.034Z,19.05
2023-05-06T18:10:59.099Z,19.00
2023-05-06T18:14:01.786Z,18.98
2023-05-06T18:17:04.152Z,18.83
2023-05-06T18:20:08.035Z,18.76
2023-05-06T18:23:10.759Z,18.76
2023-05-06T18:26:18.745Z,18.82
2023-05-06T18:29:27.836Z,18.86
2023-05-06T18:32:31.706Z,18.73
2023-05-06T18:35:34.184Z,18.64
2023-05-06T18:38:36.638Z,18.67
2023-05-06T18:41:39.090Z,18.58
2023-05-06T18:44:44.848Z,18.59
2023-05-06T18:47:47.350Z,18.52
2023-05-06T18:50:50.992Z,18.51
2023-05-06T18:53:53.842Z,18.42
2023-05-06T18:56:57.779Z,18.23
2023-05-06T19:00:00.371Z,18.03
2023-05-06T19:03:02.947Z,17.92
2023-05-06T19:06:10.637Z,18.16
2023-05-06T19:09:13.534Z,18.21
2023-05-06T19:12:16.092Z,18.25
2023-05-06T19:15:19.248Z,18.10
2023-05-06T19:18:21.819Z,18.01
2023-05-06T19:21:24.622Z,18.12
2023-05-06T19:24:27.308Z,18.24
2023-05-06T19:27:29.998Z,18.32
2023-05-06T19:30:34.544Z,18.22
2023-05-06T19:33:38.307Z,18.05
2023-05-06T19:36:41.019Z,18.01
2023-05-06T19:39:43.603Z,17.93
2023-05-06T19:42:46.885Z,17.95
2023-05-06T19:45:49.435Z,18.03
2023-05-06T19:48:51.863Z,18.02
2023-05-06T19:51:54.325Z,17.93
2023-05-06T19:54:57.590Z,17.88
2023-05-06T19:58:00.051Z,17.97
2023-05-06T20:01:02.683Z,17.82
2023-05-06T20:04:05.374Z,17.84
2023-05-06T20:07:07.952Z,17.71
2023-05-06T20:10:13.579Z,17.44
2023-05-06T20:13:17.796Z,17.55
2023-05-06T20:16:20.346Z,17.42
2023-05-06T20:19:26.275Z,17.37
2023-05-06T20:22:31.357Z,17.42
2023-05-06T20:25:36.910Z,17.33
2023-05-06T20:28:39.364Z,17.42
2023-05-06T20:31:42.190Z,17.41
2023-05-06T20:34:44.877Z,17.11
2023-05-06T20:37:47.317Z,17.04
2023-05-06T20:40:50.033Z,17.12
2023-05-06T20:43:57.202Z,17.13
2023-05-06T20:46:59.789Z,17.18
2023-05-06T20:50:02.399Z,17.23
2023-05-06T20:53:05.234Z,17.19
2023-05-06T20:56:17.650Z,17.19
2023-05-06T20:59:20.363Z,17.04
2023-05-06T21:02:23.123Z,17.11
2023-05-06T21:05:26.042Z,17.25
2023-05-06T21:08:28.635Z,17.18
2023-05-06T21:11:31.329Z,17.09
2023-05-06T21:14:34.423Z,16.99
2023-05-06T21:17:36.992Z,17.03
2023-05-06T21:20:39.541Z,16.85
2023-05-06T21:23:42.029Z,16.74
2023-05-06T21:26:44.558Z,16.56
2023-05-06T21:29:47.045Z,16.60
2023-05-06T21:32:49.769Z,16.50
2023-05-06T21:35:52.290Z,16.38
2023-05-06T21:39:08.314Z,16.37
2023-05-06T21:42:10.916Z,16.24
2023-05-06T21:45:13.916Z,16.25
2023-05-06T21:48:16.758Z,16.09
2023-05-06T21:51:19.352Z,15.99
2023-05-06T21:54:21.904Z,15.88
2023-05-06T21:57:24.381Z,15.85
2023-05-06T22:00:28.207Z,15.64
2023-05-06T22:03:31.039Z,15.51
2023-05-06T22:06:33.998Z,15.42
2023-05-06T22:09:37.006Z,15.52
2023-05-06T22:12:39.569Z,15.57
2023-05-06T22:15:42.358Z,15.50
2023-05-06T22:18:44.895Z,15.38
2023-05-06T22:21:47.452Z,15.51
2023-05-06T22:24:49.952Z,15.46
2023-05-06T22:27:52.489Z,15.48
2023-05-06T22:30:55.279Z,15.46
2023-05-06T22:33:58.060Z,15.62
2023-05-06T22:37:01.172Z,15.52
2023-05-06T22:40:04.288Z,15.47
2023-05-06T22:43:06.820Z,15.50
2023-05-06T22:46:09.594Z,15.54
2023-05-06T22:49:12.159Z,15.69
2023-05-06T22:52:15.591Z,15.71
2023-05-06T22:55:18.341Z,15.72
2023-05-06T22:58:21.028Z,15.70
2023-05-06T23:01:25.255Z,15.68
2023-05-06T23:04:28.008Z,15.80
2023-05-06T23:07:31.183Z,15.75
2023-05-06T23:10:33.695Z,15.71
2023-05-06T23:13:36.597Z,15.62
2023-05-06T23:16:39.583Z,15.66
2023-05-06T23:19:43.604Z,15.77
2023-05-06T23:22:46.747Z,15.78
2023-05-06T23:25:49.163Z,15.76
2023-05-06T23:28:52.324Z,15.63
2023-05-06T23:31:54.811Z,15.51
2023-05-06T23:34:57.781Z,15.30
2023-05-06T23:38:00.192Z,15.29
2023-05-06T23:41:02.725Z,15.21
2023-05-06T23:44:06.429Z,15.11
2023-05-06T23:47:09.420Z,15.02
2023-05-06T23:50:12.272Z,15.02
2023-05-06T23:53:15.017Z,15.09
2023-05-06T23:56:17.417Z,15.00
2023-05-06T23:59:19.799Z,14.99
